<?xml version="1.0" encoding="UTF-8" standalone="no" ?>
<gpx xmlns="http://www.topografix.com/GPX/1/1" xmlns:xsi="http://www.w3.org/2001/XMLSchema-instance" xsi:schemaLocation="http://www.topografix.com/GPX/1/1 http://www.topografix.com/GPX/1/1/gpx.xsd" version="1.1" creator="VisuGPX - https://www.visugpx.com">
  <metadata>
    <name>jour 1_3_45km_sans_la_fin ni milieu</name>
  </metadata>
  <trk>
    <name><![CDATA[jour 1_3_45km_sans_la_fin ni milieu]]></name>
    <extensions>
      <line xmlns="http://www.topografix.com/GPX/gpx_style/0/2">
        <color>0000FF</color>
        <width>4</width>
      </line>
    </extensions>
    <trkseg>
      <trkpt lat="50.62459" lon="5.56676">
        <ele>69</ele>
        <time>2025-03-22T16:30:09Z</time>
      </trkpt>
      <trkpt lat="50.62478" lon="5.56758">
        <ele>65</ele>
        <time>2025-03-22T16:30:22Z</time>
      </trkpt>
      <trkpt lat="50.62439" lon="5.56826">
        <ele>67</ele>
        <time>2025-03-22T16:30:36Z</time>
      </trkpt>
      <trkpt lat="50.62514" lon="5.56895">
        <ele>67</ele>
        <time>2025-03-22T16:30:56Z</time>
      </trkpt>
      <trkpt lat="50.62536" lon="5.56923">
        <ele>67</ele>
        <time>2025-03-22T16:31:02Z</time>
      </trkpt>
      <trkpt lat="50.62626" lon="5.57087">
        <ele>66</ele>
        <time>2025-03-22T16:31:35Z</time>
      </trkpt>
      <trkpt lat="50.62753" lon="5.5727">
        <ele>70</ele>
        <time>2025-03-22T16:32:15Z</time>
      </trkpt>
      <trkpt lat="50.62768" lon="5.57303">
        <ele>67</ele>
        <time>2025-03-22T16:32:21Z</time>
      </trkpt>
      <trkpt lat="50.62761" lon="5.57312">
        <ele>67</ele>
        <time>2025-03-22T16:32:23Z</time>
      </trkpt>
      <trkpt lat="50.62781" lon="5.57369">
        <ele>61</ele>
        <time>2025-03-22T16:32:32Z</time>
      </trkpt>
      <trkpt lat="50.62865" lon="5.57542">
        <ele>65</ele>
        <time>2025-03-22T16:33:05Z</time>
      </trkpt>
      <trkpt lat="50.62848" lon="5.5756">
        <ele>66</ele>
        <time>2025-03-22T16:33:10Z</time>
      </trkpt>
      <trkpt lat="50.6279" lon="5.576">
        <ele>72</ele>
        <time>2025-03-22T16:33:24Z</time>
      </trkpt>
      <trkpt lat="50.62769" lon="5.57586">
        <ele>73</ele>
        <time>2025-03-22T16:33:30Z</time>
      </trkpt>
      <trkpt lat="50.62757" lon="5.57585">
        <ele>74</ele>
        <time>2025-03-22T16:33:32Z</time>
      </trkpt>
      <trkpt lat="50.62708" lon="5.57618">
        <ele>69</ele>
        <time>2025-03-22T16:33:45Z</time>
      </trkpt>
      <trkpt lat="50.62562" lon="5.57732">
        <ele>65</ele>
        <time>2025-03-22T16:34:23Z</time>
      </trkpt>
      <trkpt lat="50.62546" lon="5.57761">
        <ele>66</ele>
        <time>2025-03-22T16:34:29Z</time>
      </trkpt>
      <trkpt lat="50.62497" lon="5.57793">
        <ele>66</ele>
        <time>2025-03-22T16:34:41Z</time>
      </trkpt>
      <trkpt lat="50.62488" lon="5.57807">
        <ele>67</ele>
        <time>2025-03-22T16:34:44Z</time>
      </trkpt>
      <trkpt lat="50.62484" lon="5.57832">
        <ele>67</ele>
        <time>2025-03-22T16:34:48Z</time>
      </trkpt>
      <trkpt lat="50.625" lon="5.57977">
        <ele>66</ele>
        <time>2025-03-22T16:35:10Z</time>
      </trkpt>
      <trkpt lat="50.62425" lon="5.57984">
        <ele>63</ele>
        <time>2025-03-22T16:35:27Z</time>
      </trkpt>
      <trkpt lat="50.62398" lon="5.57993">
        <ele>62</ele>
        <time>2025-03-22T16:35:34Z</time>
      </trkpt>
      <trkpt lat="50.62364" lon="5.58012">
        <ele>61</ele>
        <time>2025-03-22T16:35:42Z</time>
      </trkpt>
      <trkpt lat="50.62331" lon="5.58038">
        <ele>61</ele>
        <time>2025-03-22T16:35:51Z</time>
      </trkpt>
      <trkpt lat="50.62281" lon="5.58093">
        <ele>62</ele>
        <time>2025-03-22T16:36:05Z</time>
      </trkpt>
      <trkpt lat="50.6228" lon="5.58103">
        <ele>63</ele>
        <time>2025-03-22T16:36:06Z</time>
      </trkpt>
      <trkpt lat="50.62223" lon="5.58216">
        <ele>66</ele>
        <time>2025-03-22T16:36:28Z</time>
      </trkpt>
      <trkpt lat="50.62212" lon="5.58221">
        <ele>65</ele>
        <time>2025-03-22T16:36:30Z</time>
      </trkpt>
      <trkpt lat="50.62206" lon="5.58229">
        <ele>65</ele>
        <time>2025-03-22T16:36:32Z</time>
      </trkpt>
      <trkpt lat="50.62197" lon="5.58249">
        <ele>66</ele>
        <time>2025-03-22T16:36:36Z</time>
      </trkpt>
      <trkpt lat="50.62162" lon="5.58342">
        <ele>69</ele>
        <time>2025-03-22T16:36:52Z</time>
      </trkpt>
      <trkpt lat="50.6216" lon="5.5836">
        <ele>69</ele>
        <time>2025-03-22T16:36:55Z</time>
      </trkpt>
      <trkpt lat="50.62042" lon="5.58702">
        <ele>65</ele>
        <time>2025-03-22T16:37:52Z</time>
      </trkpt>
      <trkpt lat="50.62011" lon="5.58803">
        <ele>66</ele>
        <time>2025-03-22T16:38:09Z</time>
      </trkpt>
      <trkpt lat="50.61961" lon="5.58935">
        <ele>69</ele>
        <time>2025-03-22T16:38:32Z</time>
      </trkpt>
      <trkpt lat="50.6192" lon="5.59032">
        <ele>70</ele>
        <time>2025-03-22T16:38:49Z</time>
      </trkpt>
      <trkpt lat="50.61833" lon="5.59211">
        <ele>64</ele>
        <time>2025-03-22T16:39:22Z</time>
      </trkpt>
      <trkpt lat="50.61821" lon="5.59222">
        <ele>64</ele>
        <time>2025-03-22T16:39:26Z</time>
      </trkpt>
      <trkpt lat="50.61762" lon="5.59153">
        <ele>65</ele>
        <time>2025-03-22T16:39:43Z</time>
      </trkpt>
      <trkpt lat="50.61703" lon="5.59281">
        <ele>70</ele>
        <time>2025-03-22T16:40:06Z</time>
      </trkpt>
      <trkpt lat="50.61628" lon="5.59468">
        <ele>72</ele>
        <time>2025-03-22T16:40:39Z</time>
      </trkpt>
      <trkpt lat="50.61571" lon="5.59655">
        <ele>67</ele>
        <time>2025-03-22T16:41:10Z</time>
      </trkpt>
      <trkpt lat="50.61505" lon="5.59902">
        <ele>64</ele>
        <time>2025-03-22T16:41:49Z</time>
      </trkpt>
      <trkpt lat="50.61487" lon="5.59983">
        <ele>64</ele>
        <time>2025-03-22T16:42:02Z</time>
      </trkpt>
      <trkpt lat="50.61482" lon="5.6004">
        <ele>64</ele>
        <time>2025-03-22T16:42:11Z</time>
      </trkpt>
      <trkpt lat="50.61473" lon="5.60093">
        <ele>65</ele>
        <time>2025-03-22T16:42:19Z</time>
      </trkpt>
      <trkpt lat="50.61455" lon="5.60131">
        <ele>65</ele>
        <time>2025-03-22T16:42:26Z</time>
      </trkpt>
      <trkpt lat="50.61448" lon="5.60184">
        <ele>66</ele>
        <time>2025-03-22T16:42:34Z</time>
      </trkpt>
      <trkpt lat="50.61428" lon="5.60195">
        <ele>67</ele>
        <time>2025-03-22T16:42:39Z</time>
      </trkpt>
      <trkpt lat="50.6141" lon="5.60246">
        <ele>68</ele>
        <time>2025-03-22T16:42:47Z</time>
      </trkpt>
      <trkpt lat="50.61152" lon="5.61203">
        <ele>65</ele>
        <time>2025-03-22T16:45:22Z</time>
      </trkpt>
      <trkpt lat="50.61127" lon="5.6119">
        <ele>64</ele>
        <time>2025-03-22T16:45:28Z</time>
      </trkpt>
      <trkpt lat="50.61118" lon="5.61224">
        <ele>65</ele>
        <time>2025-03-22T16:45:33Z</time>
      </trkpt>
      <trkpt lat="50.61108" lon="5.61238">
        <ele>65</ele>
        <time>2025-03-22T16:45:36Z</time>
      </trkpt>
      <trkpt lat="50.61093" lon="5.61248">
        <ele>64</ele>
        <time>2025-03-22T16:45:40Z</time>
      </trkpt>
      <trkpt lat="50.61074" lon="5.61252">
        <ele>64</ele>
        <time>2025-03-22T16:45:45Z</time>
      </trkpt>
      <trkpt lat="50.61052" lon="5.6125">
        <ele>65</ele>
        <time>2025-03-22T16:45:50Z</time>
      </trkpt>
      <trkpt lat="50.60952" lon="5.61221">
        <ele>67</ele>
        <time>2025-03-22T16:46:13Z</time>
      </trkpt>
      <trkpt lat="50.60892" lon="5.61197">
        <ele>68</ele>
        <time>2025-03-22T16:46:28Z</time>
      </trkpt>
      <trkpt lat="50.60926" lon="5.6122">
        <ele>67</ele>
        <time>2025-03-22T16:46:37Z</time>
      </trkpt>
      <trkpt lat="50.60854" lon="5.61471">
        <ele>67</ele>
        <time>2025-03-22T16:47:17Z</time>
      </trkpt>
      <trkpt lat="50.6084" lon="5.61557">
        <ele>69</ele>
        <time>2025-03-22T16:47:31Z</time>
      </trkpt>
      <trkpt lat="50.60851" lon="5.61565">
        <ele>69</ele>
        <time>2025-03-22T16:47:33Z</time>
      </trkpt>
      <trkpt lat="50.60849" lon="5.61612">
        <ele>69</ele>
        <time>2025-03-22T16:47:40Z</time>
      </trkpt>
      <trkpt lat="50.60814" lon="5.61728">
        <ele>70</ele>
        <time>2025-03-22T16:47:59Z</time>
      </trkpt>
      <trkpt lat="50.60815" lon="5.61745">
        <ele>70</ele>
        <time>2025-03-22T16:48:02Z</time>
      </trkpt>
      <trkpt lat="50.60802" lon="5.61794">
        <ele>70</ele>
        <time>2025-03-22T16:48:10Z</time>
      </trkpt>
      <trkpt lat="50.60744" lon="5.61975">
        <ele>71</ele>
        <time>2025-03-22T16:48:40Z</time>
      </trkpt>
      <trkpt lat="50.60686" lon="5.62091">
        <ele>71</ele>
        <time>2025-03-22T16:49:02Z</time>
      </trkpt>
      <trkpt lat="50.60663" lon="5.6215">
        <ele>72</ele>
        <time>2025-03-22T16:49:12Z</time>
      </trkpt>
      <trkpt lat="50.60504" lon="5.62638">
        <ele>70</ele>
        <time>2025-03-22T16:50:33Z</time>
      </trkpt>
      <trkpt lat="50.60464" lon="5.62767">
        <ele>70</ele>
        <time>2025-03-22T16:50:55Z</time>
      </trkpt>
      <trkpt lat="50.60446" lon="5.62758">
        <ele>70</ele>
        <time>2025-03-22T16:50:59Z</time>
      </trkpt>
      <trkpt lat="50.60441" lon="5.62762">
        <ele>70</ele>
        <time>2025-03-22T16:51:00Z</time>
      </trkpt>
      <trkpt lat="50.60425" lon="5.62801">
        <ele>70</ele>
        <time>2025-03-22T16:51:07Z</time>
      </trkpt>
      <trkpt lat="50.60396" lon="5.62964">
        <ele>70</ele>
        <time>2025-03-22T16:51:32Z</time>
      </trkpt>
      <trkpt lat="50.6035" lon="5.63151">
        <ele>71</ele>
        <time>2025-03-22T16:52:02Z</time>
      </trkpt>
      <trkpt lat="50.60335" lon="5.6325">
        <ele>70</ele>
        <time>2025-03-22T16:52:17Z</time>
      </trkpt>
      <trkpt lat="50.60322" lon="5.63363">
        <ele>72</ele>
        <time>2025-03-22T16:52:34Z</time>
      </trkpt>
      <trkpt lat="50.60317" lon="5.63439">
        <ele>73</ele>
        <time>2025-03-22T16:52:45Z</time>
      </trkpt>
      <trkpt lat="50.60318" lon="5.63457">
        <ele>73</ele>
        <time>2025-03-22T16:52:48Z</time>
      </trkpt>
      <trkpt lat="50.60331" lon="5.63503">
        <ele>74</ele>
        <time>2025-03-22T16:52:56Z</time>
      </trkpt>
      <trkpt lat="50.60346" lon="5.63505">
        <ele>75</ele>
        <time>2025-03-22T16:52:59Z</time>
      </trkpt>
      <trkpt lat="50.60355" lon="5.63523">
        <ele>76</ele>
        <time>2025-03-22T16:53:02Z</time>
      </trkpt>
      <trkpt lat="50.60354" lon="5.6355">
        <ele>77</ele>
        <time>2025-03-22T16:53:06Z</time>
      </trkpt>
      <trkpt lat="50.60348" lon="5.63563">
        <ele>78</ele>
        <time>2025-03-22T16:53:09Z</time>
      </trkpt>
      <trkpt lat="50.60351" lon="5.63584">
        <ele>79</ele>
        <time>2025-03-22T16:53:12Z</time>
      </trkpt>
      <trkpt lat="50.60402" lon="5.63632">
        <ele>83</ele>
        <time>2025-03-22T16:53:26Z</time>
      </trkpt>
      <trkpt lat="50.60446" lon="5.63616">
        <ele>83</ele>
        <time>2025-03-22T16:53:36Z</time>
      </trkpt>
      <trkpt lat="50.60487" lon="5.63582">
        <ele>83</ele>
        <time>2025-03-22T16:53:47Z</time>
      </trkpt>
      <trkpt lat="50.60534" lon="5.63635">
        <ele>87</ele>
        <time>2025-03-22T16:54:01Z</time>
      </trkpt>
      <trkpt lat="50.60618" lon="5.63705">
        <ele>93</ele>
        <time>2025-03-22T16:54:23Z</time>
      </trkpt>
      <trkpt lat="50.60625" lon="5.63692">
        <ele>93</ele>
        <time>2025-03-22T16:54:26Z</time>
      </trkpt>
      <trkpt lat="50.6064" lon="5.63685">
        <ele>93</ele>
        <time>2025-03-22T16:54:29Z</time>
      </trkpt>
      <trkpt lat="50.60697" lon="5.63679">
        <ele>95</ele>
        <time>2025-03-22T16:54:43Z</time>
      </trkpt>
      <trkpt lat="50.60769" lon="5.63651">
        <ele>96</ele>
        <time>2025-03-22T16:55:00Z</time>
      </trkpt>
      <trkpt lat="50.60814" lon="5.63627">
        <ele>96</ele>
        <time>2025-03-22T16:55:11Z</time>
      </trkpt>
      <trkpt lat="50.60846" lon="5.63601">
        <ele>95</ele>
        <time>2025-03-22T16:55:19Z</time>
      </trkpt>
      <trkpt lat="50.60881" lon="5.6356">
        <ele>94</ele>
        <time>2025-03-22T16:55:30Z</time>
      </trkpt>
      <trkpt lat="50.60907" lon="5.63525">
        <ele>93</ele>
        <time>2025-03-22T16:55:38Z</time>
      </trkpt>
      <trkpt lat="50.60932" lon="5.63479">
        <ele>92</ele>
        <time>2025-03-22T16:55:46Z</time>
      </trkpt>
      <trkpt lat="50.60955" lon="5.63424">
        <ele>93</ele>
        <time>2025-03-22T16:55:56Z</time>
      </trkpt>
      <trkpt lat="50.60969" lon="5.63384">
        <ele>95</ele>
        <time>2025-03-22T16:56:03Z</time>
      </trkpt>
      <trkpt lat="50.60994" lon="5.63284">
        <ele>99</ele>
        <time>2025-03-22T16:56:19Z</time>
      </trkpt>
      <trkpt lat="50.61019" lon="5.63156">
        <ele>100</ele>
        <time>2025-03-22T16:56:39Z</time>
      </trkpt>
      <trkpt lat="50.61079" lon="5.62877">
        <ele>98</ele>
        <time>2025-03-22T16:57:22Z</time>
      </trkpt>
      <trkpt lat="50.61096" lon="5.62825">
        <ele>98</ele>
        <time>2025-03-22T16:57:31Z</time>
      </trkpt>
      <trkpt lat="50.61129" lon="5.62747">
        <ele>101</ele>
        <time>2025-03-22T16:57:45Z</time>
      </trkpt>
      <trkpt lat="50.61172" lon="5.62671">
        <ele>104</ele>
        <time>2025-03-22T16:58:00Z</time>
      </trkpt>
      <trkpt lat="50.61182" lon="5.62664">
        <ele>105</ele>
        <time>2025-03-22T16:58:03Z</time>
      </trkpt>
      <trkpt lat="50.61233" lon="5.62608">
        <ele>110</ele>
        <time>2025-03-22T16:58:17Z</time>
      </trkpt>
      <trkpt lat="50.61269" lon="5.62581">
        <ele>112</ele>
        <time>2025-03-22T16:58:26Z</time>
      </trkpt>
      <trkpt lat="50.61321" lon="5.62553">
        <ele>113</ele>
        <time>2025-03-22T16:58:39Z</time>
      </trkpt>
      <trkpt lat="50.61469" lon="5.62488">
        <ele>109</ele>
        <time>2025-03-22T16:59:15Z</time>
      </trkpt>
      <trkpt lat="50.61526" lon="5.62453">
        <ele>113</ele>
        <time>2025-03-22T16:59:29Z</time>
      </trkpt>
      <trkpt lat="50.61566" lon="5.62421">
        <ele>120</ele>
        <time>2025-03-22T16:59:40Z</time>
      </trkpt>
      <trkpt lat="50.61596" lon="5.62391">
        <ele>123</ele>
        <time>2025-03-22T16:59:48Z</time>
      </trkpt>
      <trkpt lat="50.6164" lon="5.62336">
        <ele>122</ele>
        <time>2025-03-22T17:00:01Z</time>
      </trkpt>
      <trkpt lat="50.61748" lon="5.62154">
        <ele>125</ele>
        <time>2025-03-22T17:00:38Z</time>
      </trkpt>
      <trkpt lat="50.61791" lon="5.62093">
        <ele>127</ele>
        <time>2025-03-22T17:00:52Z</time>
      </trkpt>
      <trkpt lat="50.61841" lon="5.62045">
        <ele>128</ele>
        <time>2025-03-22T17:01:05Z</time>
      </trkpt>
      <trkpt lat="50.61864" lon="5.62028">
        <ele>129</ele>
        <time>2025-03-22T17:01:11Z</time>
      </trkpt>
      <trkpt lat="50.61895" lon="5.62009">
        <ele>130</ele>
        <time>2025-03-22T17:01:19Z</time>
      </trkpt>
      <trkpt lat="50.61932" lon="5.61996">
        <ele>130</ele>
        <time>2025-03-22T17:01:28Z</time>
      </trkpt>
      <trkpt lat="50.61981" lon="5.6199">
        <ele>131</ele>
        <time>2025-03-22T17:01:40Z</time>
      </trkpt>
      <trkpt lat="50.6203" lon="5.6199">
        <ele>131</ele>
        <time>2025-03-22T17:01:51Z</time>
      </trkpt>
      <trkpt lat="50.62041" lon="5.61985">
        <ele>131</ele>
        <time>2025-03-22T17:01:54Z</time>
      </trkpt>
      <trkpt lat="50.62087" lon="5.62001">
        <ele>131</ele>
        <time>2025-03-22T17:02:05Z</time>
      </trkpt>
      <trkpt lat="50.62124" lon="5.62018">
        <ele>132</ele>
        <time>2025-03-22T17:02:14Z</time>
      </trkpt>
      <trkpt lat="50.62151" lon="5.62036">
        <ele>132</ele>
        <time>2025-03-22T17:02:20Z</time>
      </trkpt>
      <trkpt lat="50.62193" lon="5.62071">
        <ele>134</ele>
        <time>2025-03-22T17:02:32Z</time>
      </trkpt>
      <trkpt lat="50.62215" lon="5.62097">
        <ele>134</ele>
        <time>2025-03-22T17:02:38Z</time>
      </trkpt>
      <trkpt lat="50.62268" lon="5.62171">
        <ele>137</ele>
        <time>2025-03-22T17:02:55Z</time>
      </trkpt>
      <trkpt lat="50.62273" lon="5.6217">
        <ele>137</ele>
        <time>2025-03-22T17:02:56Z</time>
      </trkpt>
      <trkpt lat="50.62281" lon="5.62183">
        <ele>137</ele>
        <time>2025-03-22T17:02:58Z</time>
      </trkpt>
      <trkpt lat="50.62279" lon="5.62188">
        <ele>138</ele>
        <time>2025-03-22T17:02:59Z</time>
      </trkpt>
      <trkpt lat="50.62297" lon="5.62215">
        <ele>138</ele>
        <time>2025-03-22T17:03:05Z</time>
      </trkpt>
      <trkpt lat="50.62407" lon="5.6237">
        <ele>143</ele>
        <time>2025-03-22T17:03:40Z</time>
      </trkpt>
      <trkpt lat="50.62444" lon="5.62406">
        <ele>143</ele>
        <time>2025-03-22T17:03:50Z</time>
      </trkpt>
      <trkpt lat="50.62479" lon="5.62433">
        <ele>143</ele>
        <time>2025-03-22T17:03:59Z</time>
      </trkpt>
      <trkpt lat="50.62511" lon="5.62452">
        <ele>142</ele>
        <time>2025-03-22T17:04:07Z</time>
      </trkpt>
      <trkpt lat="50.62543" lon="5.62466">
        <ele>142</ele>
        <time>2025-03-22T17:04:15Z</time>
      </trkpt>
      <trkpt lat="50.62571" lon="5.62474">
        <ele>142</ele>
        <time>2025-03-22T17:04:21Z</time>
      </trkpt>
      <trkpt lat="50.62605" lon="5.62479">
        <ele>142</ele>
        <time>2025-03-22T17:04:29Z</time>
      </trkpt>
      <trkpt lat="50.62668" lon="5.6248">
        <ele>145</ele>
        <time>2025-03-22T17:04:44Z</time>
      </trkpt>
      <trkpt lat="50.62836" lon="5.62436">
        <ele>150</ele>
        <time>2025-03-22T17:05:24Z</time>
      </trkpt>
      <trkpt lat="50.6284" lon="5.62409">
        <ele>149</ele>
        <time>2025-03-22T17:05:28Z</time>
      </trkpt>
      <trkpt lat="50.62855" lon="5.62413">
        <ele>150</ele>
        <time>2025-03-22T17:05:31Z</time>
      </trkpt>
      <trkpt lat="50.62864" lon="5.62429">
        <ele>151</ele>
        <time>2025-03-22T17:05:34Z</time>
      </trkpt>
      <trkpt lat="50.62871" lon="5.62429">
        <ele>151</ele>
        <time>2025-03-22T17:05:36Z</time>
      </trkpt>
      <trkpt lat="50.63105" lon="5.62361">
        <ele>153</ele>
        <time>2025-03-22T17:06:32Z</time>
      </trkpt>
      <trkpt lat="50.6312" lon="5.62345">
        <ele>154</ele>
        <time>2025-03-22T17:06:36Z</time>
      </trkpt>
      <trkpt lat="50.63147" lon="5.62335">
        <ele>155</ele>
        <time>2025-03-22T17:06:42Z</time>
      </trkpt>
      <trkpt lat="50.63201" lon="5.6233">
        <ele>155</ele>
        <time>2025-03-22T17:06:55Z</time>
      </trkpt>
      <trkpt lat="50.63258" lon="5.62329">
        <ele>154</ele>
        <time>2025-03-22T17:07:08Z</time>
      </trkpt>
      <trkpt lat="50.63302" lon="5.6235">
        <ele>155</ele>
        <time>2025-03-22T17:07:19Z</time>
      </trkpt>
      <trkpt lat="50.63385" lon="5.6241">
        <ele>157</ele>
        <time>2025-03-22T17:07:40Z</time>
      </trkpt>
      <trkpt lat="50.63421" lon="5.62456">
        <ele>158</ele>
        <time>2025-03-22T17:07:51Z</time>
      </trkpt>
      <trkpt lat="50.63463" lon="5.62533">
        <ele>161</ele>
        <time>2025-03-22T17:08:06Z</time>
      </trkpt>
      <trkpt lat="50.63488" lon="5.62606">
        <ele>163</ele>
        <time>2025-03-22T17:08:19Z</time>
      </trkpt>
      <trkpt lat="50.63505" lon="5.62676">
        <ele>164</ele>
        <time>2025-03-22T17:08:30Z</time>
      </trkpt>
      <trkpt lat="50.63513" lon="5.62797">
        <ele>168</ele>
        <time>2025-03-22T17:08:48Z</time>
      </trkpt>
      <trkpt lat="50.63509" lon="5.62862">
        <ele>171</ele>
        <time>2025-03-22T17:08:57Z</time>
      </trkpt>
      <trkpt lat="50.63492" lon="5.62962">
        <ele>174</ele>
        <time>2025-03-22T17:09:13Z</time>
      </trkpt>
      <trkpt lat="50.63481" lon="5.63002">
        <ele>174</ele>
        <time>2025-03-22T17:09:19Z</time>
      </trkpt>
      <trkpt lat="50.63483" lon="5.63008">
        <ele>174</ele>
        <time>2025-03-22T17:09:20Z</time>
      </trkpt>
      <trkpt lat="50.63474" lon="5.63019">
        <ele>174</ele>
        <time>2025-03-22T17:09:23Z</time>
      </trkpt>
      <trkpt lat="50.63462" lon="5.63054">
        <ele>175</ele>
        <time>2025-03-22T17:09:29Z</time>
      </trkpt>
      <trkpt lat="50.63419" lon="5.63135">
        <ele>177</ele>
        <time>2025-03-22T17:09:44Z</time>
      </trkpt>
      <trkpt lat="50.63384" lon="5.6318">
        <ele>178</ele>
        <time>2025-03-22T17:09:55Z</time>
      </trkpt>
      <trkpt lat="50.63318" lon="5.63234">
        <ele>180</ele>
        <time>2025-03-22T17:10:12Z</time>
      </trkpt>
      <trkpt lat="50.63305" lon="5.63235">
        <ele>180</ele>
        <time>2025-03-22T17:10:15Z</time>
      </trkpt>
      <trkpt lat="50.63171" lon="5.63284">
        <ele>183</ele>
        <time>2025-03-22T17:10:47Z</time>
      </trkpt>
      <trkpt lat="50.62843" lon="5.63393">
        <ele>187</ele>
        <time>2025-03-22T17:12:06Z</time>
      </trkpt>
      <trkpt lat="50.62805" lon="5.63414">
        <ele>187</ele>
        <time>2025-03-22T17:12:15Z</time>
      </trkpt>
      <trkpt lat="50.62754" lon="5.63452">
        <ele>187</ele>
        <time>2025-03-22T17:12:28Z</time>
      </trkpt>
      <trkpt lat="50.62691" lon="5.6352">
        <ele>187</ele>
        <time>2025-03-22T17:12:46Z</time>
      </trkpt>
      <trkpt lat="50.62627" lon="5.63611">
        <ele>191</ele>
        <time>2025-03-22T17:13:06Z</time>
      </trkpt>
      <trkpt lat="50.62612" lon="5.63639">
        <ele>192</ele>
        <time>2025-03-22T17:13:12Z</time>
      </trkpt>
      <trkpt lat="50.62576" lon="5.63722">
        <ele>194</ele>
        <time>2025-03-22T17:13:27Z</time>
      </trkpt>
      <trkpt lat="50.62554" lon="5.63799">
        <ele>195</ele>
        <time>2025-03-22T17:13:39Z</time>
      </trkpt>
      <trkpt lat="50.62487" lon="5.64115">
        <ele>203</ele>
        <time>2025-03-22T17:14:28Z</time>
      </trkpt>
      <trkpt lat="50.62477" lon="5.64199">
        <ele>204</ele>
        <time>2025-03-22T17:14:41Z</time>
      </trkpt>
      <trkpt lat="50.62464" lon="5.64504">
        <ele>206</ele>
        <time>2025-03-22T17:15:26Z</time>
      </trkpt>
      <trkpt lat="50.62456" lon="5.64573">
        <ele>206</ele>
        <time>2025-03-22T17:15:37Z</time>
      </trkpt>
      <trkpt lat="50.62445" lon="5.64633">
        <ele>207</ele>
        <time>2025-03-22T17:15:46Z</time>
      </trkpt>
      <trkpt lat="50.62431" lon="5.64688">
        <ele>208</ele>
        <time>2025-03-22T17:15:55Z</time>
      </trkpt>
      <trkpt lat="50.62402" lon="5.64777">
        <ele>212</ele>
        <time>2025-03-22T17:16:10Z</time>
      </trkpt>
      <trkpt lat="50.62382" lon="5.64826">
        <ele>216</ele>
        <time>2025-03-22T17:16:18Z</time>
      </trkpt>
      <trkpt lat="50.62357" lon="5.64873">
        <ele>220</ele>
        <time>2025-03-22T17:16:27Z</time>
      </trkpt>
      <trkpt lat="50.62285" lon="5.64977">
        <ele>224</ele>
        <time>2025-03-22T17:16:50Z</time>
      </trkpt>
      <trkpt lat="50.62241" lon="5.65022">
        <ele>226</ele>
        <time>2025-03-22T17:17:02Z</time>
      </trkpt>
      <trkpt lat="50.62078" lon="5.6515">
        <ele>228</ele>
        <time>2025-03-22T17:17:45Z</time>
      </trkpt>
      <trkpt lat="50.62037" lon="5.65187">
        <ele>229</ele>
        <time>2025-03-22T17:17:56Z</time>
      </trkpt>
      <trkpt lat="50.61975" lon="5.65265">
        <ele>234</ele>
        <time>2025-03-22T17:18:14Z</time>
      </trkpt>
      <trkpt lat="50.61938" lon="5.65332">
        <ele>236</ele>
        <time>2025-03-22T17:18:28Z</time>
      </trkpt>
      <trkpt lat="50.6191" lon="5.65398">
        <ele>237</ele>
        <time>2025-03-22T17:18:39Z</time>
      </trkpt>
      <trkpt lat="50.61842" lon="5.65584">
        <ele>235</ele>
        <time>2025-03-22T17:19:11Z</time>
      </trkpt>
      <trkpt lat="50.61841" lon="5.65602">
        <ele>235</ele>
        <time>2025-03-22T17:19:14Z</time>
      </trkpt>
      <trkpt lat="50.61816" lon="5.65671">
        <ele>234</ele>
        <time>2025-03-22T17:19:26Z</time>
      </trkpt>
      <trkpt lat="50.61803" lon="5.65685">
        <ele>233</ele>
        <time>2025-03-22T17:19:29Z</time>
      </trkpt>
      <trkpt lat="50.61697" lon="5.65987">
        <ele>234</ele>
        <time>2025-03-22T17:20:20Z</time>
      </trkpt>
      <trkpt lat="50.61644" lon="5.66126">
        <ele>240</ele>
        <time>2025-03-22T17:20:44Z</time>
      </trkpt>
      <trkpt lat="50.61647" lon="5.66147">
        <ele>240</ele>
        <time>2025-03-22T17:20:48Z</time>
      </trkpt>
      <trkpt lat="50.61637" lon="5.6616">
        <ele>240</ele>
        <time>2025-03-22T17:20:51Z</time>
      </trkpt>
      <trkpt lat="50.61602" lon="5.66259">
        <ele>242</ele>
        <time>2025-03-22T17:21:07Z</time>
      </trkpt>
      <trkpt lat="50.61552" lon="5.66379">
        <ele>247</ele>
        <time>2025-03-22T17:21:29Z</time>
      </trkpt>
      <trkpt lat="50.61493" lon="5.66496">
        <ele>247</ele>
        <time>2025-03-22T17:21:51Z</time>
      </trkpt>
      <trkpt lat="50.61199" lon="5.67022">
        <ele>256</ele>
        <time>2025-03-22T17:23:35Z</time>
      </trkpt>
      <trkpt lat="50.61197" lon="5.67042">
        <ele>256</ele>
        <time>2025-03-22T17:23:38Z</time>
      </trkpt>
      <trkpt lat="50.61189" lon="5.67044">
        <ele>256</ele>
        <time>2025-03-22T17:23:40Z</time>
      </trkpt>
      <trkpt lat="50.61158" lon="5.67097">
        <ele>256</ele>
        <time>2025-03-22T17:23:50Z</time>
      </trkpt>
      <trkpt lat="50.61133" lon="5.67161">
        <ele>257</ele>
        <time>2025-03-22T17:24:01Z</time>
      </trkpt>
      <trkpt lat="50.61115" lon="5.67216">
        <ele>256</ele>
        <time>2025-03-22T17:24:11Z</time>
      </trkpt>
      <trkpt lat="50.61097" lon="5.67308">
        <ele>257</ele>
        <time>2025-03-22T17:24:25Z</time>
      </trkpt>
      <trkpt lat="50.61088" lon="5.67404">
        <ele>258</ele>
        <time>2025-03-22T17:24:39Z</time>
      </trkpt>
      <trkpt lat="50.61088" lon="5.67469">
        <ele>259</ele>
        <time>2025-03-22T17:24:49Z</time>
      </trkpt>
      <trkpt lat="50.61094" lon="5.67549">
        <ele>260</ele>
        <time>2025-03-22T17:25:01Z</time>
      </trkpt>
      <trkpt lat="50.61107" lon="5.67621">
        <ele>260</ele>
        <time>2025-03-22T17:25:12Z</time>
      </trkpt>
      <trkpt lat="50.61127" lon="5.67692">
        <ele>261</ele>
        <time>2025-03-22T17:25:23Z</time>
      </trkpt>
      <trkpt lat="50.61162" lon="5.67779">
        <ele>263</ele>
        <time>2025-03-22T17:25:39Z</time>
      </trkpt>
      <trkpt lat="50.61218" lon="5.67879">
        <ele>263</ele>
        <time>2025-03-22T17:25:59Z</time>
      </trkpt>
      <trkpt lat="50.61428" lon="5.68211">
        <ele>261</ele>
        <time>2025-03-22T17:27:08Z</time>
      </trkpt>
      <trkpt lat="50.61452" lon="5.68236">
        <ele>261</ele>
        <time>2025-03-22T17:27:15Z</time>
      </trkpt>
      <trkpt lat="50.61468" lon="5.68236">
        <ele>261</ele>
        <time>2025-03-22T17:27:18Z</time>
      </trkpt>
      <trkpt lat="50.61469" lon="5.68244">
        <ele>261</ele>
        <time>2025-03-22T17:27:20Z</time>
      </trkpt>
      <trkpt lat="50.61485" lon="5.68269">
        <ele>261</ele>
        <time>2025-03-22T17:27:25Z</time>
      </trkpt>
      <trkpt lat="50.61481" lon="5.68286">
        <ele>261</ele>
        <time>2025-03-22T17:27:28Z</time>
      </trkpt>
      <trkpt lat="50.61512" lon="5.68332">
        <ele>261</ele>
        <time>2025-03-22T17:27:38Z</time>
      </trkpt>
      <trkpt lat="50.61515" lon="5.68348">
        <ele>261</ele>
        <time>2025-03-22T17:27:40Z</time>
      </trkpt>
      <trkpt lat="50.61662" lon="5.68581">
        <ele>261</ele>
        <time>2025-03-22T17:28:29Z</time>
      </trkpt>
      <trkpt lat="50.61672" lon="5.68589">
        <ele>261</ele>
        <time>2025-03-22T17:28:31Z</time>
      </trkpt>
      <trkpt lat="50.61675" lon="5.68605">
        <ele>261</ele>
        <time>2025-03-22T17:28:34Z</time>
      </trkpt>
      <trkpt lat="50.61689" lon="5.68618">
        <ele>261</ele>
        <time>2025-03-22T17:28:38Z</time>
      </trkpt>
      <trkpt lat="50.61757" lon="5.68735">
        <ele>262</ele>
        <time>2025-03-22T17:29:01Z</time>
      </trkpt>
      <trkpt lat="50.61818" lon="5.68853">
        <ele>262</ele>
        <time>2025-03-22T17:29:24Z</time>
      </trkpt>
      <trkpt lat="50.62058" lon="5.69424">
        <ele>260</ele>
        <time>2025-03-22T17:31:05Z</time>
      </trkpt>
      <trkpt lat="50.62058" lon="5.69434">
        <ele>260</ele>
        <time>2025-03-22T17:31:07Z</time>
      </trkpt>
      <trkpt lat="50.62068" lon="5.69447">
        <ele>260</ele>
        <time>2025-03-22T17:31:10Z</time>
      </trkpt>
      <trkpt lat="50.6227" lon="5.69925">
        <ele>263</ele>
        <time>2025-03-22T17:32:35Z</time>
      </trkpt>
      <trkpt lat="50.6229" lon="5.69985">
        <ele>262</ele>
        <time>2025-03-22T17:32:45Z</time>
      </trkpt>
      <trkpt lat="50.62301" lon="5.69994">
        <ele>262</ele>
        <time>2025-03-22T17:32:48Z</time>
      </trkpt>
      <trkpt lat="50.62359" lon="5.70155">
        <ele>263</ele>
        <time>2025-03-22T17:33:15Z</time>
      </trkpt>
      <trkpt lat="50.627" lon="5.7127">
        <ele>272</ele>
        <time>2025-03-22T17:36:18Z</time>
      </trkpt>
      <trkpt lat="50.62904" lon="5.71922">
        <ele>266</ele>
        <time>2025-03-22T17:38:06Z</time>
      </trkpt>
      <trkpt lat="50.63133" lon="5.72911">
        <ele>274</ele>
        <time>2025-03-22T17:40:42Z</time>
      </trkpt>
      <trkpt lat="50.63145" lon="5.72956">
        <ele>274</ele>
        <time>2025-03-22T17:40:49Z</time>
      </trkpt>
      <trkpt lat="50.63166" lon="5.73005">
        <ele>273</ele>
        <time>2025-03-22T17:40:58Z</time>
      </trkpt>
      <trkpt lat="50.63195" lon="5.73122">
        <ele>274</ele>
        <time>2025-03-22T17:41:17Z</time>
      </trkpt>
      <trkpt lat="50.63195" lon="5.73196">
        <ele>275</ele>
        <time>2025-03-22T17:41:28Z</time>
      </trkpt>
      <trkpt lat="50.63205" lon="5.7325">
        <ele>275</ele>
        <time>2025-03-22T17:41:36Z</time>
      </trkpt>
      <trkpt lat="50.6326" lon="5.73484">
        <ele>276</ele>
        <time>2025-03-22T17:42:13Z</time>
      </trkpt>
      <trkpt lat="50.63277" lon="5.73541">
        <ele>277</ele>
        <time>2025-03-22T17:42:22Z</time>
      </trkpt>
      <trkpt lat="50.63333" lon="5.73783">
        <ele>278</ele>
        <time>2025-03-22T17:43:00Z</time>
      </trkpt>
      <trkpt lat="50.63499" lon="5.74532">
        <ele>278</ele>
        <time>2025-03-22T17:44:58Z</time>
      </trkpt>
      <trkpt lat="50.63509" lon="5.74543">
        <ele>278</ele>
        <time>2025-03-22T17:45:01Z</time>
      </trkpt>
      <trkpt lat="50.63513" lon="5.74558">
        <ele>278</ele>
        <time>2025-03-22T17:45:03Z</time>
      </trkpt>
      <trkpt lat="50.63511" lon="5.74575">
        <ele>278</ele>
        <time>2025-03-22T17:45:06Z</time>
      </trkpt>
      <trkpt lat="50.63516" lon="5.74605">
        <ele>278</ele>
        <time>2025-03-22T17:45:10Z</time>
      </trkpt>
      <trkpt lat="50.63636" lon="5.75131">
        <ele>277</ele>
        <time>2025-03-22T17:46:33Z</time>
      </trkpt>
      <trkpt lat="50.63665" lon="5.75272">
        <ele>278</ele>
        <time>2025-03-22T17:46:55Z</time>
      </trkpt>
      <trkpt lat="50.63681" lon="5.75365">
        <ele>278</ele>
        <time>2025-03-22T17:47:09Z</time>
      </trkpt>
      <trkpt lat="50.63705" lon="5.75545">
        <ele>279</ele>
        <time>2025-03-22T17:47:37Z</time>
      </trkpt>
      <trkpt lat="50.64009" lon="5.78272">
        <ele>299</ele>
        <time>2025-03-22T17:54:27Z</time>
      </trkpt>
      <trkpt lat="50.64041" lon="5.78413">
        <ele>299</ele>
        <time>2025-03-22T17:54:49Z</time>
      </trkpt>
      <trkpt lat="50.64231" lon="5.79058">
        <ele>305</ele>
        <time>2025-03-22T17:56:34Z</time>
      </trkpt>
      <trkpt lat="50.64239" lon="5.79077">
        <ele>305</ele>
        <time>2025-03-22T17:56:38Z</time>
      </trkpt>
      <trkpt lat="50.64247" lon="5.79114">
        <ele>305</ele>
        <time>2025-03-22T17:56:43Z</time>
      </trkpt>
      <trkpt lat="50.64287" lon="5.7922">
        <ele>307</ele>
        <time>2025-03-22T17:57:02Z</time>
      </trkpt>
      <trkpt lat="50.64305" lon="5.79252">
        <ele>308</ele>
        <time>2025-03-22T17:57:08Z</time>
      </trkpt>
      <trkpt lat="50.64335" lon="5.79294">
        <ele>309</ele>
        <time>2025-03-22T17:57:17Z</time>
      </trkpt>
      <trkpt lat="50.64384" lon="5.79338">
        <ele>310</ele>
        <time>2025-03-22T17:57:31Z</time>
      </trkpt>
      <trkpt lat="50.64496" lon="5.79422">
        <ele>309</ele>
        <time>2025-03-22T17:58:00Z</time>
      </trkpt>
      <trkpt lat="50.64567" lon="5.79484">
        <ele>309</ele>
        <time>2025-03-22T17:58:18Z</time>
      </trkpt>
      <trkpt lat="50.64585" lon="5.79504">
        <ele>310</ele>
        <time>2025-03-22T17:58:24Z</time>
      </trkpt>
      <trkpt lat="50.64645" lon="5.79592">
        <ele>309</ele>
        <time>2025-03-22T17:58:43Z</time>
      </trkpt>
      <trkpt lat="50.64668" lon="5.79632">
        <ele>309</ele>
        <time>2025-03-22T17:58:51Z</time>
      </trkpt>
      <trkpt lat="50.64699" lon="5.79706">
        <ele>309</ele>
        <time>2025-03-22T17:59:04Z</time>
      </trkpt>
      <trkpt lat="50.64708" lon="5.79714">
        <ele>308</ele>
        <time>2025-03-22T17:59:06Z</time>
      </trkpt>
      <trkpt lat="50.64707" lon="5.79728">
        <ele>309</ele>
        <time>2025-03-22T17:59:08Z</time>
      </trkpt>
      <trkpt lat="50.64761" lon="5.79909">
        <ele>311</ele>
        <time>2025-03-22T17:59:38Z</time>
      </trkpt>
      <trkpt lat="50.65068" lon="5.80975">
        <ele>318</ele>
        <time>2025-03-22T18:02:31Z</time>
      </trkpt>
      <trkpt lat="50.65073" lon="5.80985">
        <ele>318</ele>
        <time>2025-03-22T18:02:33Z</time>
      </trkpt>
      <trkpt lat="50.6508" lon="5.80987">
        <ele>318</ele>
        <time>2025-03-22T18:02:35Z</time>
      </trkpt>
      <trkpt lat="50.6508" lon="5.81014">
        <ele>318</ele>
        <time>2025-03-22T18:02:39Z</time>
      </trkpt>
      <trkpt lat="50.65188" lon="5.81394">
        <ele>318</ele>
        <time>2025-03-22T18:03:41Z</time>
      </trkpt>
      <trkpt lat="50.6521" lon="5.81516">
        <ele>317</ele>
        <time>2025-03-22T18:03:59Z</time>
      </trkpt>
      <trkpt lat="50.65214" lon="5.81625">
        <ele>317</ele>
        <time>2025-03-22T18:04:16Z</time>
      </trkpt>
      <trkpt lat="50.65213" lon="5.81689">
        <ele>317</ele>
        <time>2025-03-22T18:04:25Z</time>
      </trkpt>
      <trkpt lat="50.65203" lon="5.81799">
        <ele>315</ele>
        <time>2025-03-22T18:04:41Z</time>
      </trkpt>
      <trkpt lat="50.65192" lon="5.81855">
        <ele>315</ele>
        <time>2025-03-22T18:04:50Z</time>
      </trkpt>
      <trkpt lat="50.65171" lon="5.81932">
        <ele>316</ele>
        <time>2025-03-22T18:05:03Z</time>
      </trkpt>
      <trkpt lat="50.6515" lon="5.81998">
        <ele>316</ele>
        <time>2025-03-22T18:05:13Z</time>
      </trkpt>
      <trkpt lat="50.65109" lon="5.82099">
        <ele>318</ele>
        <time>2025-03-22T18:05:31Z</time>
      </trkpt>
      <trkpt lat="50.65193" lon="5.82237">
        <ele>307</ele>
        <time>2025-03-22T18:06:00Z</time>
      </trkpt>
      <trkpt lat="50.65243" lon="5.82369">
        <ele>297</ele>
        <time>2025-03-22T18:06:22Z</time>
      </trkpt>
      <trkpt lat="50.6536" lon="5.82565">
        <ele>279</ele>
        <time>2025-03-22T18:07:02Z</time>
      </trkpt>
      <trkpt lat="50.65481" lon="5.82806">
        <ele>264</ele>
        <time>2025-03-22T18:07:48Z</time>
      </trkpt>
      <trkpt lat="50.65519" lon="5.82868">
        <ele>262</ele>
        <time>2025-03-22T18:08:00Z</time>
      </trkpt>
      <trkpt lat="50.6556" lon="5.82904">
        <ele>261</ele>
        <time>2025-03-22T18:08:11Z</time>
      </trkpt>
      <trkpt lat="50.65615" lon="5.83029">
        <ele>275</ele>
        <time>2025-03-22T18:08:34Z</time>
      </trkpt>
      <trkpt lat="50.65653" lon="5.83066">
        <ele>281</ele>
        <time>2025-03-22T18:08:44Z</time>
      </trkpt>
      <trkpt lat="50.65672" lon="5.83126">
        <ele>284</ele>
        <time>2025-03-22T18:08:54Z</time>
      </trkpt>
      <trkpt lat="50.65731" lon="5.83211">
        <ele>283</ele>
        <time>2025-03-22T18:09:13Z</time>
      </trkpt>
      <trkpt lat="50.65763" lon="5.83229">
        <ele>282</ele>
        <time>2025-03-22T18:09:21Z</time>
      </trkpt>
      <trkpt lat="50.65832" lon="5.83301">
        <ele>277</ele>
        <time>2025-03-22T18:09:40Z</time>
      </trkpt>
      <trkpt lat="50.65934" lon="5.83415">
        <ele>268</ele>
        <time>2025-03-22T18:10:09Z</time>
      </trkpt>
      <trkpt lat="50.66104" lon="5.83665">
        <ele>264</ele>
        <time>2025-03-22T18:11:04Z</time>
      </trkpt>
      <trkpt lat="50.66211" lon="5.83916">
        <ele>257</ele>
        <time>2025-03-22T18:11:48Z</time>
      </trkpt>
      <trkpt lat="50.66263" lon="5.84021">
        <ele>256</ele>
        <time>2025-03-22T18:12:08Z</time>
      </trkpt>
      <trkpt lat="50.66297" lon="5.84022">
        <ele>254</ele>
        <time>2025-03-22T18:12:16Z</time>
      </trkpt>
      <trkpt lat="50.66621" lon="5.83899">
        <ele>241</ele>
        <time>2025-03-22T18:13:34Z</time>
      </trkpt>
      <trkpt lat="50.66808" lon="5.84044">
        <ele>233</ele>
        <time>2025-03-22T18:14:23Z</time>
      </trkpt>
      <trkpt lat="50.6682" lon="5.84077">
        <ele>233</ele>
        <time>2025-03-22T18:14:28Z</time>
      </trkpt>
      <trkpt lat="50.66841" lon="5.84072">
        <ele>232</ele>
        <time>2025-03-22T18:14:33Z</time>
      </trkpt>
      <trkpt lat="50.67072" lon="5.84235">
        <ele>224</ele>
        <time>2025-03-22T18:15:32Z</time>
      </trkpt>
      <trkpt lat="50.67166" lon="5.84319">
        <ele>217</ele>
        <time>2025-03-22T18:15:58Z</time>
      </trkpt>
      <trkpt lat="50.6722" lon="5.84373">
        <ele>213</ele>
        <time>2025-03-22T18:16:12Z</time>
      </trkpt>
      <trkpt lat="50.67341" lon="5.84531">
        <ele>202</ele>
        <time>2025-03-22T18:16:49Z</time>
      </trkpt>
      <trkpt lat="50.67384" lon="5.84572">
        <ele>198</ele>
        <time>2025-03-22T18:17:01Z</time>
      </trkpt>
      <trkpt lat="50.67467" lon="5.84593">
        <ele>194</ele>
        <time>2025-03-22T18:17:21Z</time>
      </trkpt>
      <trkpt lat="50.67549" lon="5.84579">
        <ele>191</ele>
        <time>2025-03-22T18:17:40Z</time>
      </trkpt>
      <trkpt lat="50.67626" lon="5.84572">
        <ele>189</ele>
        <time>2025-03-22T18:17:58Z</time>
      </trkpt>
      <trkpt lat="50.67721" lon="5.84594">
        <ele>188</ele>
        <time>2025-03-22T18:18:20Z</time>
      </trkpt>
      <trkpt lat="50.67758" lon="5.84619">
        <ele>189</ele>
        <time>2025-03-22T18:18:30Z</time>
      </trkpt>
      <trkpt lat="50.67787" lon="5.84668">
        <ele>191</ele>
        <time>2025-03-22T18:18:40Z</time>
      </trkpt>
      <trkpt lat="50.67902" lon="5.84894">
        <ele>197</ele>
        <time>2025-03-22T18:19:22Z</time>
      </trkpt>
      <trkpt lat="50.67989" lon="5.85019">
        <ele>204</ele>
        <time>2025-03-22T18:19:50Z</time>
      </trkpt>
      <trkpt lat="50.67996" lon="5.85036">
        <ele>205</ele>
        <time>2025-03-22T18:19:53Z</time>
      </trkpt>
      <trkpt lat="50.68057" lon="5.85104">
        <ele>210</ele>
        <time>2025-03-22T18:20:10Z</time>
      </trkpt>
      <trkpt lat="50.68095" lon="5.85151">
        <ele>212</ele>
        <time>2025-03-22T18:20:22Z</time>
      </trkpt>
      <trkpt lat="50.68066" lon="5.85247">
        <ele>215</ele>
        <time>2025-03-22T18:20:37Z</time>
      </trkpt>
      <trkpt lat="50.68057" lon="5.85284">
        <ele>216</ele>
        <time>2025-03-22T18:20:43Z</time>
      </trkpt>
      <trkpt lat="50.68064" lon="5.85286">
        <ele>216</ele>
        <time>2025-03-22T18:20:45Z</time>
      </trkpt>
      <trkpt lat="50.68071" lon="5.8528">
        <ele>216</ele>
        <time>2025-03-22T18:20:47Z</time>
      </trkpt>
      <trkpt lat="50.68149" lon="5.85266">
        <ele>216</ele>
        <time>2025-03-22T18:21:05Z</time>
      </trkpt>
      <trkpt lat="50.68213" lon="5.8526">
        <ele>215</ele>
        <time>2025-03-22T18:21:20Z</time>
      </trkpt>
      <trkpt lat="50.68248" lon="5.85263">
        <ele>214</ele>
        <time>2025-03-22T18:21:28Z</time>
      </trkpt>
      <trkpt lat="50.68307" lon="5.85276">
        <ele>212</ele>
        <time>2025-03-22T18:21:42Z</time>
      </trkpt>
      <trkpt lat="50.68342" lon="5.85289">
        <ele>210</ele>
        <time>2025-03-22T18:21:51Z</time>
      </trkpt>
      <trkpt lat="50.68786" lon="5.85489">
        <ele>198</ele>
        <time>2025-03-22T18:23:38Z</time>
      </trkpt>
      <trkpt lat="50.68823" lon="5.85501">
        <ele>202</ele>
        <time>2025-03-22T18:23:47Z</time>
      </trkpt>
      <trkpt lat="50.68872" lon="5.85509">
        <ele>205</ele>
        <time>2025-03-22T18:23:59Z</time>
      </trkpt>
      <trkpt lat="50.6908" lon="5.85525">
        <ele>209</ele>
        <time>2025-03-22T18:24:47Z</time>
      </trkpt>
      <trkpt lat="50.69636" lon="5.85607">
        <ele>220</ele>
        <time>2025-03-22T18:26:58Z</time>
      </trkpt>
      <trkpt lat="50.69684" lon="5.85619">
        <ele>222</ele>
        <time>2025-03-22T18:27:09Z</time>
      </trkpt>
      <trkpt lat="50.69724" lon="5.85639">
        <ele>223</ele>
        <time>2025-03-22T18:27:19Z</time>
      </trkpt>
      <trkpt lat="50.6976" lon="5.85663">
        <ele>224</ele>
        <time>2025-03-22T18:27:28Z</time>
      </trkpt>
      <trkpt lat="50.69797" lon="5.85697">
        <ele>226</ele>
        <time>2025-03-22T18:27:38Z</time>
      </trkpt>
      <trkpt lat="50.69831" lon="5.85735">
        <ele>228</ele>
        <time>2025-03-22T18:27:48Z</time>
      </trkpt>
      <trkpt lat="50.69873" lon="5.85807">
        <ele>229</ele>
        <time>2025-03-22T18:28:02Z</time>
      </trkpt>
      <trkpt lat="50.69944" lon="5.85954">
        <ele>233</ele>
        <time>2025-03-22T18:28:30Z</time>
      </trkpt>
      <trkpt lat="50.69986" lon="5.86035">
        <ele>236</ele>
        <time>2025-03-22T18:28:45Z</time>
      </trkpt>
      <trkpt lat="50.70039" lon="5.86109">
        <ele>240</ele>
        <time>2025-03-22T18:29:02Z</time>
      </trkpt>
      <trkpt lat="50.70091" lon="5.86165">
        <ele>241</ele>
        <time>2025-03-22T18:29:16Z</time>
      </trkpt>
      <trkpt lat="50.70121" lon="5.8619">
        <ele>241</ele>
        <time>2025-03-22T18:29:24Z</time>
      </trkpt>
      <trkpt lat="50.70173" lon="5.86224">
        <ele>242</ele>
        <time>2025-03-22T18:29:37Z</time>
      </trkpt>
      <trkpt lat="50.70262" lon="5.86265">
        <ele>240</ele>
        <time>2025-03-22T18:29:59Z</time>
      </trkpt>
      <trkpt lat="50.70275" lon="5.86266">
        <ele>239</ele>
        <time>2025-03-22T18:30:02Z</time>
      </trkpt>
      <trkpt lat="50.70289" lon="5.86278">
        <ele>239</ele>
        <time>2025-03-22T18:30:06Z</time>
      </trkpt>
      <trkpt lat="50.70616" lon="5.864">
        <ele>241</ele>
        <time>2025-03-22T18:31:24Z</time>
      </trkpt>
      <trkpt lat="50.7068" lon="5.8643">
        <ele>244</ele>
        <time>2025-03-22T18:31:40Z</time>
      </trkpt>
      <trkpt lat="50.70717" lon="5.86458">
        <ele>245</ele>
        <time>2025-03-22T18:31:49Z</time>
      </trkpt>
      <trkpt lat="50.70746" lon="5.86496">
        <ele>247</ele>
        <time>2025-03-22T18:31:58Z</time>
      </trkpt>
      <trkpt lat="50.70782" lon="5.86549">
        <ele>245</ele>
        <time>2025-03-22T18:32:10Z</time>
      </trkpt>
      <trkpt lat="50.70811" lon="5.86608">
        <ele>242</ele>
        <time>2025-03-22T18:32:21Z</time>
      </trkpt>
      <trkpt lat="50.70841" lon="5.86703">
        <ele>240</ele>
        <time>2025-03-22T18:32:36Z</time>
      </trkpt>
      <trkpt lat="50.70848" lon="5.86789">
        <ele>240</ele>
        <time>2025-03-22T18:32:49Z</time>
      </trkpt>
      <trkpt lat="50.70849" lon="5.8684">
        <ele>240</ele>
        <time>2025-03-22T18:32:57Z</time>
      </trkpt>
      <trkpt lat="50.70842" lon="5.86927">
        <ele>242</ele>
        <time>2025-03-22T18:33:10Z</time>
      </trkpt>
      <trkpt lat="50.70794" lon="5.87274">
        <ele>250</ele>
        <time>2025-03-22T18:34:02Z</time>
      </trkpt>
      <trkpt lat="50.70786" lon="5.87392">
        <ele>254</ele>
        <time>2025-03-22T18:34:20Z</time>
      </trkpt>
      <trkpt lat="50.70786" lon="5.87572">
        <ele>257</ele>
        <time>2025-03-22T18:34:46Z</time>
      </trkpt>
      <trkpt lat="50.70791" lon="5.87649">
        <ele>258</ele>
        <time>2025-03-22T18:34:58Z</time>
      </trkpt>
      <trkpt lat="50.70807" lon="5.87793">
        <ele>261</ele>
        <time>2025-03-22T18:35:20Z</time>
      </trkpt>
      <trkpt lat="50.70829" lon="5.87918">
        <ele>263</ele>
        <time>2025-03-22T18:35:39Z</time>
      </trkpt>
      <trkpt lat="50.70865" lon="5.88045">
        <ele>266</ele>
        <time>2025-03-22T18:35:59Z</time>
      </trkpt>
      <trkpt lat="50.70914" lon="5.88166">
        <ele>272</ele>
        <time>2025-03-22T18:36:21Z</time>
      </trkpt>
      <trkpt lat="50.70942" lon="5.88219">
        <ele>274</ele>
        <time>2025-03-22T18:36:31Z</time>
      </trkpt>
      <trkpt lat="50.70982" lon="5.88278">
        <ele>278</ele>
        <time>2025-03-22T18:36:44Z</time>
      </trkpt>
      <trkpt lat="50.71081" lon="5.8839">
        <ele>276</ele>
        <time>2025-03-22T18:37:12Z</time>
      </trkpt>
      <trkpt lat="50.71137" lon="5.88443">
        <ele>272</ele>
        <time>2025-03-22T18:37:27Z</time>
      </trkpt>
      <trkpt lat="50.71373" lon="5.88687">
        <ele>263</ele>
        <time>2025-03-22T18:38:33Z</time>
      </trkpt>
      <trkpt lat="50.71494" lon="5.88843">
        <ele>262</ele>
        <time>2025-03-22T18:39:10Z</time>
      </trkpt>
      <trkpt lat="50.71587" lon="5.89002">
        <ele>256</ele>
        <time>2025-03-22T18:39:42Z</time>
      </trkpt>
      <trkpt lat="50.71732" lon="5.89269">
        <ele>255</ele>
        <time>2025-03-22T18:40:34Z</time>
      </trkpt>
      <trkpt lat="50.71769" lon="5.89333">
        <ele>249</ele>
        <time>2025-03-22T18:40:46Z</time>
      </trkpt>
      <trkpt lat="50.71816" lon="5.89394">
        <ele>244</ele>
        <time>2025-03-22T18:41:01Z</time>
      </trkpt>
      <trkpt lat="50.71877" lon="5.89454">
        <ele>243</ele>
        <time>2025-03-22T18:41:17Z</time>
      </trkpt>
      <trkpt lat="50.72006" lon="5.89538">
        <ele>240</ele>
        <time>2025-03-22T18:41:50Z</time>
      </trkpt>
      <trkpt lat="50.72102" lon="5.89588">
        <ele>237</ele>
        <time>2025-03-22T18:42:14Z</time>
      </trkpt>
      <trkpt lat="50.72133" lon="5.89618">
        <ele>236</ele>
        <time>2025-03-22T18:42:22Z</time>
      </trkpt>
      <trkpt lat="50.72165" lon="5.8966">
        <ele>236</ele>
        <time>2025-03-22T18:42:32Z</time>
      </trkpt>
      <trkpt lat="50.72206" lon="5.89731">
        <ele>235</ele>
        <time>2025-03-22T18:42:46Z</time>
      </trkpt>
      <trkpt lat="50.72228" lon="5.89794">
        <ele>236</ele>
        <time>2025-03-22T18:42:57Z</time>
      </trkpt>
      <trkpt lat="50.72247" lon="5.89899">
        <ele>238</ele>
        <time>2025-03-22T18:43:13Z</time>
      </trkpt>
      <trkpt lat="50.72251" lon="5.89964">
        <ele>237</ele>
        <time>2025-03-22T18:43:22Z</time>
      </trkpt>
      <trkpt lat="50.7225" lon="5.90009">
        <ele>237</ele>
        <time>2025-03-22T18:43:29Z</time>
      </trkpt>
      <trkpt lat="50.72241" lon="5.90082">
        <ele>233</ele>
        <time>2025-03-22T18:43:40Z</time>
      </trkpt>
      <trkpt lat="50.72216" lon="5.90181">
        <ele>229</ele>
        <time>2025-03-22T18:43:56Z</time>
      </trkpt>
      <trkpt lat="50.72196" lon="5.9023">
        <ele>228</ele>
        <time>2025-03-22T18:44:04Z</time>
      </trkpt>
      <trkpt lat="50.72048" lon="5.90479">
        <ele>219</ele>
        <time>2025-03-22T18:44:55Z</time>
      </trkpt>
      <trkpt lat="50.71907" lon="5.90724">
        <ele>224</ele>
        <time>2025-03-22T18:45:44Z</time>
      </trkpt>
      <trkpt lat="50.7189" lon="5.90768">
        <ele>222</ele>
        <time>2025-03-22T18:45:52Z</time>
      </trkpt>
      <trkpt lat="50.71872" lon="5.90825">
        <ele>221</ele>
        <time>2025-03-22T18:46:01Z</time>
      </trkpt>
      <trkpt lat="50.71863" lon="5.9087">
        <ele>219</ele>
        <time>2025-03-22T18:46:08Z</time>
      </trkpt>
      <trkpt lat="50.71854" lon="5.90953">
        <ele>217</ele>
        <time>2025-03-22T18:46:20Z</time>
      </trkpt>
      <trkpt lat="50.71857" lon="5.91062">
        <ele>216</ele>
        <time>2025-03-22T18:46:37Z</time>
      </trkpt>
      <trkpt lat="50.71865" lon="5.9111">
        <ele>214</ele>
        <time>2025-03-22T18:46:44Z</time>
      </trkpt>
      <trkpt lat="50.71882" lon="5.9117">
        <ele>212</ele>
        <time>2025-03-22T18:46:54Z</time>
      </trkpt>
      <trkpt lat="50.71918" lon="5.91259">
        <ele>210</ele>
        <time>2025-03-22T18:47:09Z</time>
      </trkpt>
      <trkpt lat="50.71949" lon="5.91308">
        <ele>210</ele>
        <time>2025-03-22T18:47:19Z</time>
      </trkpt>
      <trkpt lat="50.72" lon="5.91362">
        <ele>211</ele>
        <time>2025-03-22T18:47:34Z</time>
      </trkpt>
      <trkpt lat="50.72032" lon="5.91384">
        <ele>211</ele>
        <time>2025-03-22T18:47:42Z</time>
      </trkpt>
      <trkpt lat="50.7211" lon="5.91407">
        <ele>211</ele>
        <time>2025-03-22T18:48:00Z</time>
      </trkpt>
      <trkpt lat="50.72156" lon="5.91404">
        <ele>211</ele>
        <time>2025-03-22T18:48:11Z</time>
      </trkpt>
      <trkpt lat="50.72197" lon="5.91389">
        <ele>213</ele>
        <time>2025-03-22T18:48:21Z</time>
      </trkpt>
      <trkpt lat="50.72197" lon="5.91362">
        <ele>211</ele>
        <time>2025-03-22T18:48:25Z</time>
      </trkpt>
      <trkpt lat="50.72563" lon="5.91108">
        <ele>213</ele>
        <time>2025-03-22T18:49:58Z</time>
      </trkpt>
      <trkpt lat="50.72608" lon="5.91083">
        <ele>212</ele>
        <time>2025-03-22T18:50:10Z</time>
      </trkpt>
      <trkpt lat="50.7266" lon="5.91062">
        <ele>213</ele>
        <time>2025-03-22T18:50:22Z</time>
      </trkpt>
      <trkpt lat="50.72729" lon="5.91059">
        <ele>212</ele>
        <time>2025-03-22T18:50:38Z</time>
      </trkpt>
      <trkpt lat="50.72756" lon="5.91063">
        <ele>212</ele>
        <time>2025-03-22T18:50:44Z</time>
      </trkpt>
      <trkpt lat="50.72783" lon="5.91075">
        <ele>213</ele>
        <time>2025-03-22T18:50:51Z</time>
      </trkpt>
      <trkpt lat="50.72849" lon="5.91119">
        <ele>217</ele>
        <time>2025-03-22T18:51:08Z</time>
      </trkpt>
      <trkpt lat="50.72881" lon="5.91149">
        <ele>223</ele>
        <time>2025-03-22T18:51:16Z</time>
      </trkpt>
      <trkpt lat="50.72923" lon="5.91207">
        <ele>229</ele>
        <time>2025-03-22T18:51:29Z</time>
      </trkpt>
      <trkpt lat="50.72966" lon="5.91303">
        <ele>231</ele>
        <time>2025-03-22T18:51:47Z</time>
      </trkpt>
      <trkpt lat="50.72983" lon="5.91384">
        <ele>229</ele>
        <time>2025-03-22T18:51:59Z</time>
      </trkpt>
      <trkpt lat="50.72994" lon="5.91468">
        <ele>224</ele>
        <time>2025-03-22T18:52:12Z</time>
      </trkpt>
      <trkpt lat="50.72991" lon="5.91583">
        <ele>222</ele>
        <time>2025-03-22T18:52:29Z</time>
      </trkpt>
      <trkpt lat="50.72983" lon="5.91633">
        <ele>220</ele>
        <time>2025-03-22T18:52:37Z</time>
      </trkpt>
      <trkpt lat="50.72967" lon="5.91687">
        <ele>218</ele>
        <time>2025-03-22T18:52:46Z</time>
      </trkpt>
      <trkpt lat="50.7296" lon="5.91719">
        <ele>217</ele>
        <time>2025-03-22T18:52:51Z</time>
      </trkpt>
      <trkpt lat="50.73011" lon="5.91756">
        <ele>213</ele>
        <time>2025-03-22T18:53:04Z</time>
      </trkpt>
      <trkpt lat="50.73029" lon="5.91755">
        <ele>213</ele>
        <time>2025-03-22T18:53:08Z</time>
      </trkpt>
      <trkpt lat="50.73034" lon="5.91783">
        <ele>211</ele>
        <time>2025-03-22T18:53:12Z</time>
      </trkpt>
      <trkpt lat="50.73022" lon="5.91967">
        <ele>204</ele>
        <time>2025-03-22T18:53:40Z</time>
      </trkpt>
      <trkpt lat="50.73027" lon="5.92">
        <ele>203</ele>
        <time>2025-03-22T18:53:45Z</time>
      </trkpt>
      <trkpt lat="50.73042" lon="5.91998">
        <ele>203</ele>
        <time>2025-03-22T18:53:48Z</time>
      </trkpt>
      <trkpt lat="50.73065" lon="5.92003">
        <ele>202</ele>
        <time>2025-03-22T18:53:54Z</time>
      </trkpt>
      <trkpt lat="50.73118" lon="5.92042">
        <ele>201</ele>
        <time>2025-03-22T18:54:07Z</time>
      </trkpt>
      <trkpt lat="50.7314" lon="5.92071">
        <ele>199</ele>
        <time>2025-03-22T18:54:14Z</time>
      </trkpt>
      <trkpt lat="50.73182" lon="5.92192">
        <ele>193</ele>
        <time>2025-03-22T18:54:34Z</time>
      </trkpt>
      <trkpt lat="50.73203" lon="5.92232">
        <ele>192</ele>
        <time>2025-03-22T18:54:42Z</time>
      </trkpt>
      <trkpt lat="50.73284" lon="5.92343">
        <ele>192</ele>
        <time>2025-03-22T18:55:07Z</time>
      </trkpt>
      <trkpt lat="50.73299" lon="5.92356">
        <ele>191</ele>
        <time>2025-03-22T18:55:11Z</time>
      </trkpt>
      <trkpt lat="50.73717" lon="5.92522">
        <ele>187</ele>
        <time>2025-03-22T18:56:52Z</time>
      </trkpt>
      <trkpt lat="50.73754" lon="5.92618">
        <ele>184</ele>
        <time>2025-03-22T18:57:08Z</time>
      </trkpt>
      <trkpt lat="50.73849" lon="5.92916">
        <ele>178</ele>
        <time>2025-03-22T18:57:58Z</time>
      </trkpt>
      <trkpt lat="50.73906" lon="5.93081">
        <ele>178</ele>
        <time>2025-03-22T18:58:25Z</time>
      </trkpt>
      <trkpt lat="50.73946" lon="5.93163">
        <ele>174</ele>
        <time>2025-03-22T18:58:41Z</time>
      </trkpt>
      <trkpt lat="50.73991" lon="5.93238">
        <ele>171</ele>
        <time>2025-03-22T18:58:56Z</time>
      </trkpt>
      <trkpt lat="50.74038" lon="5.93309">
        <ele>167</ele>
        <time>2025-03-22T18:59:11Z</time>
      </trkpt>
      <trkpt lat="50.74079" lon="5.93363">
        <ele>164</ele>
        <time>2025-03-22T18:59:24Z</time>
      </trkpt>
      <trkpt lat="50.74104" lon="5.93384">
        <ele>163</ele>
        <time>2025-03-22T18:59:30Z</time>
      </trkpt>
      <trkpt lat="50.74218" lon="5.93461">
        <ele>160</ele>
        <time>2025-03-22T18:59:59Z</time>
      </trkpt>
      <trkpt lat="50.74286" lon="5.93504">
        <ele>160</ele>
        <time>2025-03-22T19:00:16Z</time>
      </trkpt>
      <trkpt lat="50.74397" lon="5.93564">
        <ele>161</ele>
        <time>2025-03-22T19:00:44Z</time>
      </trkpt>
      <trkpt lat="50.74424" lon="5.93593">
        <ele>161</ele>
        <time>2025-03-22T19:00:51Z</time>
      </trkpt>
      <trkpt lat="50.74471" lon="5.93699">
        <ele>159</ele>
        <time>2025-03-22T19:01:10Z</time>
      </trkpt>
      <trkpt lat="50.74536" lon="5.9383">
        <ele>158</ele>
        <time>2025-03-22T19:01:35Z</time>
      </trkpt>
      <trkpt lat="50.7458" lon="5.93781">
        <ele>156</ele>
        <time>2025-03-22T19:01:48Z</time>
      </trkpt>
      <trkpt lat="50.74706" lon="5.93598">
        <ele>149</ele>
        <time>2025-03-22T19:02:28Z</time>
      </trkpt>
      <trkpt lat="50.74727" lon="5.9358">
        <ele>148</ele>
        <time>2025-03-22T19:02:33Z</time>
      </trkpt>
      <trkpt lat="50.74745" lon="5.93574">
        <ele>148</ele>
        <time>2025-03-22T19:02:37Z</time>
      </trkpt>
      <trkpt lat="50.7477" lon="5.93577">
        <ele>147</ele>
        <time>2025-03-22T19:02:43Z</time>
      </trkpt>
      <trkpt lat="50.74906" lon="5.93624">
        <ele>142</ele>
        <time>2025-03-22T19:03:16Z</time>
      </trkpt>
      <trkpt lat="50.74923" lon="5.93624">
        <ele>142</ele>
        <time>2025-03-22T19:03:20Z</time>
      </trkpt>
      <trkpt lat="50.74973" lon="5.93588">
        <ele>141</ele>
        <time>2025-03-22T19:03:33Z</time>
      </trkpt>
      <trkpt lat="50.75044" lon="5.93524">
        <ele>146</ele>
        <time>2025-03-22T19:03:52Z</time>
      </trkpt>
      <trkpt lat="50.75058" lon="5.93504">
        <ele>148</ele>
        <time>2025-03-22T19:03:56Z</time>
      </trkpt>
      <trkpt lat="50.75064" lon="5.93484">
        <ele>149</ele>
        <time>2025-03-22T19:03:59Z</time>
      </trkpt>
      <trkpt lat="50.7507" lon="5.93444">
        <ele>152</ele>
        <time>2025-03-22T19:04:05Z</time>
      </trkpt>
      <trkpt lat="50.75072" lon="5.93396">
        <ele>155</ele>
        <time>2025-03-22T19:04:13Z</time>
      </trkpt>
      <trkpt lat="50.75077" lon="5.93367">
        <ele>156</ele>
        <time>2025-03-22T19:04:17Z</time>
      </trkpt>
      <trkpt lat="50.75091" lon="5.93374">
        <ele>155</ele>
        <time>2025-03-22T19:04:20Z</time>
      </trkpt>
      <trkpt lat="50.75116" lon="5.93371">
        <ele>154</ele>
        <time>2025-03-22T19:04:26Z</time>
      </trkpt>
      <trkpt lat="50.75145" lon="5.93441">
        <ele>148</ele>
        <time>2025-03-22T19:04:39Z</time>
      </trkpt>
      <trkpt lat="50.75167" lon="5.93437">
        <ele>146</ele>
        <time>2025-03-22T19:04:44Z</time>
      </trkpt>
      <trkpt lat="50.75195" lon="5.93437">
        <ele>145</ele>
        <time>2025-03-22T19:04:50Z</time>
      </trkpt>
      <trkpt lat="50.75256" lon="5.93445">
        <ele>142</ele>
        <time>2025-03-22T19:05:05Z</time>
      </trkpt>
      <trkpt lat="50.75315" lon="5.93469">
        <ele>140</ele>
        <time>2025-03-22T19:05:19Z</time>
      </trkpt>
      <trkpt lat="50.75347" lon="5.93467">
        <ele>140</ele>
        <time>2025-03-22T19:05:26Z</time>
      </trkpt>
      <trkpt lat="50.75361" lon="5.93496">
        <ele>137</ele>
        <time>2025-03-22T19:05:32Z</time>
      </trkpt>
      <trkpt lat="50.75393" lon="5.93521">
        <ele>134</ele>
        <time>2025-03-22T19:05:40Z</time>
      </trkpt>
      <trkpt lat="50.7548" lon="5.93634">
        <ele>128</ele>
        <time>2025-03-22T19:06:06Z</time>
      </trkpt>
      <trkpt lat="50.75516" lon="5.9365">
        <ele>127</ele>
        <time>2025-03-22T19:06:15Z</time>
      </trkpt>
      <trkpt lat="50.75552" lon="5.93698">
        <ele>124</ele>
        <time>2025-03-22T19:06:26Z</time>
      </trkpt>
      <trkpt lat="50.7557" lon="5.93709">
        <ele>124</ele>
        <time>2025-03-22T19:06:31Z</time>
      </trkpt>
      <trkpt lat="50.75594" lon="5.93728">
        <ele>123</ele>
        <time>2025-03-22T19:06:37Z</time>
      </trkpt>
      <trkpt lat="50.75628" lon="5.93698">
        <ele>123</ele>
        <time>2025-03-22T19:06:46Z</time>
      </trkpt>
      <trkpt lat="50.75632" lon="5.93706">
        <ele>123</ele>
        <time>2025-03-22T19:06:47Z</time>
      </trkpt>
      <trkpt lat="50.75632" lon="5.93727">
        <ele>123</ele>
        <time>2025-03-22T19:06:51Z</time>
      </trkpt>
      <trkpt lat="50.75641" lon="5.93773">
        <ele>122</ele>
        <time>2025-03-22T19:06:58Z</time>
      </trkpt>
      <trkpt lat="50.75646" lon="5.93786">
        <ele>123</ele>
        <time>2025-03-22T19:07:00Z</time>
      </trkpt>
      <trkpt lat="50.75641" lon="5.93828">
        <ele>123</ele>
        <time>2025-03-22T19:07:06Z</time>
      </trkpt>
    </trkseg>
  </trk>
</gpx>